createdAt,value
2022-09-09T05:02:34.431Z,100650.38
2022-09-09T05:08:10.329Z,100656.56
2022-09-09T05:13:33.010Z,100673.09
2022-09-09T05:18:54.603Z,100668.78
2022-09-09T05:24:16.005Z,100671.50
2022-09-09T05:29:37.482Z,100674.34
2022-09-09T05:35:00.938Z,100676.34
2022-09-09T05:40:22.705Z,100670.59
2022-09-09T05:45:44.241Z,100672.47
2022-09-09T05:51:07.917Z,100667.44
2022-09-09T05:56:30.351Z,100679.03
2022-09-09T06:01:54.269Z,100681.22
2022-09-09T06:07:21.133Z,100683.25
2022-09-09T06:12:42.431Z,100691.59
2022-09-09T06:18:03.823Z,100685.38
2022-09-09T06:23:26.271Z,100680.44
2022-09-09T06:28:48.754Z,100682.59
2022-09-09T06:34:09.982Z,100683.09
2022-09-09T06:39:34.965Z,100677.81
2022-09-09T06:44:56.305Z,100679.19
2022-09-09T06:50:31.475Z,100683.53
2022-09-09T06:55:52.812Z,100687.06
2022-09-09T07:01:20.267Z,100675.06
2022-09-09T07:06:47.106Z,100680.00
2022-09-09T07:12:13.723Z,100693.09
2022-09-09T07:17:42.012Z,100694.09
2022-09-09T07:23:03.027Z,100701.25
2022-09-09T07:28:25.038Z,100720.00
2022-09-09T07:33:46.601Z,100714.91
2022-09-09T07:39:11.391Z,100703.16
2022-09-09T07:44:35.892Z,100706.94
2022-09-09T07:50:05.692Z,100716.63
2022-09-09T07:55:27.530Z,100721.22
2022-09-09T08:00:49.105Z,100707.59
2022-09-09T08:06:10.304Z,100709.78
2022-09-09T08:11:36.677Z,100715.09
2022-09-09T08:17:00.008Z,100728.97
2022-09-09T08:22:23.136Z,100728.47
2022-09-09T08:27:44.784Z,100728.06
2022-09-09T08:33:06.435Z,100729.31
2022-09-09T08:38:29.649Z,100737.47
2022-09-09T08:43:59.961Z,100737.78
2022-09-09T08:49:29.613Z,100746.69
2022-09-09T08:54:52.906Z,100755.09
2022-09-09T09:00:16.072Z,100763.00
2022-09-09T09:05:41.474Z,100773.88
2022-09-09T09:11:03.425Z,100763.78
2022-09-09T09:16:40.016Z,100754.47
2022-09-09T09:22:23.452Z,100748.69
2022-09-09T09:27:56.165Z,100747.38
2022-09-09T09:33:21.570Z,100744.69
2022-09-09T09:44:38.513Z,100750.88
2022-09-09T09:50:20.019Z,100752.66
2022-09-09T09:55:54.032Z,100756.28
2022-09-09T10:01:34.314Z,100752.00
2022-09-09T10:06:59.111Z,100752.44
2022-09-09T10:12:45.277Z,100761.53
2022-09-09T10:18:24.693Z,100772.19
2022-09-09T10:24:20.119Z,100761.88
2022-09-09T10:30:03.448Z,100750.97
2022-09-09T10:35:36.120Z,100751.16
2022-09-09T10:40:57.639Z,100744.84
2022-09-09T10:46:21.723Z,100757.19
2022-09-09T10:51:46.198Z,100763.88
2022-09-09T10:57:18.959Z,100778.03
2022-09-09T11:02:43.014Z,100775.88
2022-09-09T11:08:19.094Z,100778.06
2022-09-09T11:13:43.825Z,100772.16
2022-09-09T11:19:15.167Z,100761.44
2022-09-09T11:24:46.592Z,100760.66
2022-09-09T11:30:37.700Z,100764.25
2022-09-09T11:36:20.724Z,100753.91
2022-09-09T11:41:41.712Z,100747.38
2022-09-09T11:47:02.905Z,100749.38
2022-09-09T11:52:36.582Z,100748.84
2022-09-09T11:58:01.479Z,100746.72
2022-09-09T12:03:38.187Z,100731.50
2022-09-09T12:09:09.497Z,100734.31
2022-09-09T12:14:55.718Z,100731.94
2022-09-09T12:20:23.015Z,100720.91
2022-09-09T12:26:01.995Z,100719.31
2022-09-09T12:31:54.509Z,100707.75
2022-09-09T12:37:27.490Z,100710.00
2022-09-09T12:42:48.473Z,100709.31
2022-09-09T12:48:16.716Z,100691.50
2022-09-09T12:53:39.956Z,100691.41
2022-09-09T12:59:01.853Z,100686.75
2022-09-09T13:04:25.323Z,100690.63
2022-09-09T13:09:47.871Z,100693.19
2022-09-09T13:15:21.422Z,100687.22
2022-09-09T13:20:50.208Z,100682.91
2022-09-09T13:26:24.930Z,100691.03
2022-09-09T13:31:46.555Z,100690.72
2022-09-09T13:37:24.538Z,100684.16
2022-09-09T13:42:46.000Z,100686.75
2022-09-09T13:48:11.578Z,100675.09
2022-09-09T13:53:32.828Z,100665.06
2022-09-09T13:58:53.848Z,100662.66
2022-09-09T14:04:14.799Z,100660.00
2022-09-09T14:09:35.931Z,100663.59
2022-09-09T14:14:56.984Z,100672.44
2022-09-09T14:20:18.577Z,100671.72
2022-09-09T14:25:42.383Z,100666.47
2022-09-09T14:31:04.929Z,100672.41
2022-09-09T14:36:25.965Z,100664.44
2022-09-09T14:41:47.005Z,100660.13
2022-09-09T14:47:11.794Z,100646.41
2022-09-09T14:52:33.096Z,100653.59
2022-09-09T14:57:56.776Z,100651.03
2022-09-09T15:03:18.098Z,100657.94
2022-09-09T15:08:42.530Z,100656.22
2022-09-09T15:14:03.734Z,100662.38
2022-09-09T15:19:24.527Z,100661.66
2022-09-09T15:24:45.304Z,100658.28
2022-09-09T15:30:06.997Z,100654.78
2022-09-09T15:35:27.841Z,100653.88
2022-09-09T15:40:55.507Z,100654.69
2022-09-09T15:46:39.187Z,100657.28
2022-09-09T15:52:04.583Z,100659.81
2022-09-09T15:57:25.465Z,100642.34
2022-09-09T16:02:48.414Z,100644.94
2022-09-09T16:08:09.160Z,100649.25
2022-09-09T16:13:33.733Z,100646.56
2022-09-09T16:18:56.973Z,100661.34
2022-09-09T16:24:20.377Z,100668.16
2022-09-09T16:29:41.383Z,100667.19
2022-09-09T16:35:02.143Z,100662.72
2022-09-09T16:40:23.059Z,100666.94
2022-09-09T16:45:45.405Z,100664.16
2022-09-09T16:51:15.206Z,100664.00
2022-09-09T16:56:44.088Z,100667.28
2022-09-09T17:02:06.086Z,100667.03
2022-09-09T17:07:27.072Z,100654.69
2022-09-09T17:12:47.816Z,100656.25
2022-09-09T17:18:08.803Z,100662.19
2022-09-09T17:23:29.979Z,100669.78
2022-09-09T17:28:50.996Z,100663.31
2022-09-09T17:34:11.920Z,100657.00
2022-09-09T17:39:33.408Z,100650.63
2022-09-09T17:44:54.238Z,100652.94
2022-09-09T17:50:15.007Z,100662.34
2022-09-09T17:55:35.942Z,100662.94
2022-09-09T18:00:56.833Z,100670.50
2022-09-09T18:06:24.171Z,100658.84
2022-09-09T18:11:48.558Z,100668.19
2022-09-09T18:17:09.817Z,100660.13
2022-09-09T18:22:31.686Z,100674.44
2022-09-09T18:27:53.483Z,100677.59
2022-09-09T18:33:14.702Z,100683.38
2022-09-09T18:38:36.135Z,100689.22
2022-09-09T18:44:03.393Z,100693.13
2022-09-09T18:49:25.101Z,100704.16
2022-09-09T18:54:47.990Z,100713.53
2022-09-09T19:00:10.424Z,100732.38
2022-09-09T19:05:31.532Z,100744.28
2022-09-09T19:10:53.150Z,100743.31
2022-09-09T19:16:15.282Z,100744.56
2022-09-09T19:21:38.756Z,100740.75
2022-09-09T19:27:02.264Z,100744.81
2022-09-09T19:32:52.287Z,100736.88
2022-09-09T19:38:04.103Z,100728.88
2022-09-09T19:43:24.989Z,100734.00
2022-09-09T19:48:47.067Z,100735.41
2022-09-09T19:54:10.767Z,100724.06
2022-09-09T19:59:31.631Z,100726.28
2022-09-09T20:04:52.486Z,100719.22
2022-09-09T20:10:13.366Z,100718.91
2022-09-09T20:15:34.224Z,100727.47
2022-09-09T20:21:05.459Z,100731.66
2022-09-09T20:26:30.393Z,100744.44
2022-09-09T20:31:51.984Z,100746.84
2022-09-09T20:37:13.727Z,100745.00
2022-09-09T20:42:34.967Z,100766.16
2022-09-09T20:47:57.087Z,100751.88
2022-09-09T20:53:18.105Z,100745.59
2022-09-09T20:58:39.229Z,100747.66
2022-09-09T21:04:00.166Z,100731.00
2022-09-09T21:09:24.612Z,100719.44
2022-09-09T21:14:45.393Z,100716.84
2022-09-09T21:20:06.933Z,100720.00
2022-09-09T21:25:27.855Z,100711.09
2022-09-09T21:30:54.839Z,100709.41
2022-09-09T21:36:16.034Z,100717.06
2022-09-09T21:41:37.030Z,100717.53
2022-09-09T21:46:57.608Z,100726.00
2022-09-09T21:52:18.170Z,100733.56
2022-09-09T21:57:38.741Z,100736.19
